Enter the Airport ICAO Code

Search by Airport or City

Current Weather

GCXO | Tenerife-North Airport (Los Rodeos Airport)

Tenerife, Canary Islands, Spain

Last Update 28 Minutes Ago

Partly Cloudy Sky

Temperature of 25 ºC

Light to Moderate Winds from North

Temperature

25 ºC

Dew Point Temperature

16 ºC

Relative Humidity

57.58 %

Wind Direction

North (350º, Ranging from 310º to 050º)

Wind Velocity

17 km/h (09 kt)

Gusts

None

Visibility

Greater than 10 Kilometers

Sea Level Pressure

1020 hPa (Hectopascals)

Layers of Clouds

30% to 60% of Sky Covered from 610 mts (2000 ft) Above Ground Level.

METAR GCXO 121400Z 35009KT 310V050 9999 SCT020 25/16 Q1020 NOSIG

Weather Forecast

GCXO | Tenerife-North Airport (Los Rodeos Airport)

Tenerife, Canary Islands, Spain

Forecast valid for the next 25 Hours

In 1 hour it is expected the begining of:

Partly Cloudy Sky

Moderate Winds from North

In 5 to 7 hours it is expected the begining of:

Mostly Cloudy Sky

In 5 hours it is expected the begining of 14 hours with intermittent periods of:

Fog Banks

Maximum Temperature

24 ºC in 1 Hour

Minimum Temperature

17 ºC in 16 Hours

TAF GCXO 121400Z 1215/1315 35010KT 9999 SCT017 TX24/1215Z TN17/1306Z BECMG 1219/1221 BKN014 PROB40 TEMPO 1219/1309 2000 BCFG BKN005